sensor_id;sensor_type;location;lat;lon;timestamp;pressure;altitude;pressure_sealevel;temperature;humidity
27958;BME280;15295;42.658;23.374;2023-05-29T00:00:21;94376.25;;;19.65;54.58
27958;BME280;15295;42.658;23.374;2023-05-29T00:02:53;94378.72;;;19.63;54.69
27958;BME280;15295;42.658;23.374;2023-05-29T00:05:19;94386.25;;;19.62;54.69
27958;BME280;15295;42.658;23.374;2023-05-29T00:07:45;94370.53;;;19.50;54.79
27958;BME280;15295;42.658;23.374;2023-05-29T00:10:24;94383.75;;;19.55;55.11
27958;BME280;15295;42.658;23.374;2023-05-29T00:12:53;94379.78;;;19.56;54.87
27958;BME280;15295;42.658;23.374;2023-05-29T00:15:20;94383.13;;;19.51;55.21
27958;BME280;15295;42.658;23.374;2023-05-29T00:17:50;94413.38;;;19.67;55.29
27958;BME280;15295;42.658;23.374;2023-05-29T00:20:16;94414.59;;;19.75;55.16
27958;BME280;15295;42.658;23.374;2023-05-29T00:22:43;94413.06;;;19.74;55.29
27958;BME280;15295;42.658;23.374;2023-05-29T00:25:16;94407.81;;;19.67;55.22
27958;BME280;15295;42.658;23.374;2023-05-29T00:27:41;94418.28;;;19.72;55.32
27958;BME280;15295;42.658;23.374;2023-05-29T00:30:10;94401.78;;;19.60;55.27
27958;BME280;15295;42.658;23.374;2023-05-29T00:32:39;94407.94;;;19.64;55.34
27958;BME280;15295;42.658;23.374;2023-05-29T00:35:09;94406.75;;;19.65;55.55
27958;BME280;15295;42.658;23.374;2023-05-29T00:37:37;94406.56;;;19.59;55.28
27958;BME280;15295;42.658;23.374;2023-05-29T00:40:14;94413.19;;;19.62;55.31
27958;BME280;15295;42.658;23.374;2023-05-29T00:42:43;94404.53;;;19.51;55.44
27958;BME280;15295;42.658;23.374;2023-05-29T00:45:08;94406.38;;;19.45;55.94
27958;BME280;15295;42.658;23.374;2023-05-29T00:47:34;94378.25;;;19.15;55.77
27958;BME280;15295;42.658;23.374;2023-05-29T00:50:01;94402.81;;;19.35;55.76
27958;BME280;15295;42.658;23.374;2023-05-29T00:52:27;94404.34;;;19.36;55.71
27958;BME280;15295;42.658;23.374;2023-05-29T00:54:54;94374.13;;;19.20;55.99
27958;BME280;15295;42.658;23.374;2023-05-29T00:57:21;94397.38;;;19.32;55.71
27958;BME280;15295;42.658;23.374;2023-05-29T00:59:49;94400.75;;;19.27;56.26
27958;BME280;15295;42.658;23.374;2023-05-29T01:02:16;94393.81;;;19.22;56.52
27958;BME280;15295;42.658;23.374;2023-05-29T01:04:44;94366.03;;;19.04;56.33
27958;BME280;15295;42.658;23.374;2023-05-29T01:07:12;94390.09;;;19.16;56.73
27958;BME280;15295;42.658;23.374;2023-05-29T01:09:39;94394.88;;;19.15;56.61
27958;BME280;15295;42.658;23.374;2023-05-29T01:12:33;94396.09;;;19.14;56.72
27958;BME280;15295;42.658;23.374;2023-05-29T01:18:06;94397.97;;;19.17;56.51
27958;BME280;15295;42.658;23.374;2023-05-29T01:21:03;94397.81;;;19.21;56.54
27958;BME280;15295;42.658;23.374;2023-05-29T01:24:02;94401.66;;;19.23;56.70
27958;BME280;15295;42.658;23.374;2023-05-29T01:27:09;94403.84;;;19.29;56.54
27958;BME280;15295;42.658;23.374;2023-05-29T01:29:39;94379.63;;;19.11;56.49
27958;BME280;15295;42.658;23.374;2023-05-29T01:32:16;94375.91;;;19.14;56.54
27958;BME280;15295;42.658;23.374;2023-05-29T01:34:44;94395.22;;;19.27;56.70
27958;BME280;15295;42.658;23.374;2023-05-29T01:37:19;94392.25;;;19.21;56.90
27958;BME280;15295;42.658;23.374;2023-05-29T01:39:49;94402.88;;;19.22;56.74
27958;BME280;15295;42.658;23.374;2023-05-29T01:42:19;94393.34;;;19.23;56.41
27958;BME280;15295;42.658;23.374;2023-05-29T01:44:45;94366.19;;;19.00;56.83
27958;BME280;15295;42.658;23.374;2023-05-29T01:47:27;94388.72;;;19.11;56.84
27958;BME280;15295;42.658;23.374;2023-05-29T01:49:55;94391.28;;;19.06;57.04
27958;BME280;15295;42.658;23.374;2023-05-29T01:52:21;94394.84;;;19.06;57.00
27958;BME280;15295;42.658;23.374;2023-05-29T01:54:48;94382.19;;;18.96;56.88
27958;BME280;15295;42.658;23.374;2023-05-29T01:57:13;94381.88;;;18.94;57.16
27958;BME280;15295;42.658;23.374;2023-05-29T01:59:39;94375.97;;;18.83;57.12
27958;BME280;15295;42.658;23.374;2023-05-29T02:02:08;94389.88;;;18.92;56.78
27958;BME280;15295;42.658;23.374;2023-05-29T02:04:34;94373.75;;;18.69;57.35
27958;BME280;15295;42.658;23.374;2023-05-29T02:06:59;94392.38;;;18.78;57.59
27958;BME280;15295;42.658;23.374;2023-05-29T02:09:25;94371.13;;;18.66;57.62
27958;BME280;15295;42.658;23.374;2023-05-29T02:11:54;94379.16;;;18.73;57.24
27958;BME280;15295;42.658;23.374;2023-05-29T02:14:19;94379.94;;;18.73;57.46
27958;BME280;15295;42.658;23.374;2023-05-29T02:16:45;94390.22;;;18.73;57.31
27958;BME280;15295;42.658;23.374;2023-05-29T02:19:13;94372.94;;;18.60;57.81
27958;BME280;15295;42.658;23.374;2023-05-29T02:21:51;94381.25;;;18.60;57.88
27958;BME280;15295;42.658;23.374;2023-05-29T02:24:16;94365.50;;;18.48;58.52
27958;BME280;15295;42.658;23.374;2023-05-29T02:26:41;94375.97;;;18.53;58.28
27958;BME280;15295;42.658;23.374;2023-05-29T02:29:08;94383.06;;;18.54;58.65
27958;BME280;15295;42.658;23.374;2023-05-29T02:31:33;94387.66;;;18.57;58.30
27958;BME280;15295;42.658;23.374;2023-05-29T02:34:00;94388.44;;;18.57;58.35
27958;BME280;15295;42.658;23.374;2023-05-29T02:36:25;94379.00;;;18.45;58.45
27958;BME280;15295;42.658;23.374;2023-05-29T02:38:53;94388.91;;;18.56;58.50
27958;BME280;15295;42.658;23.374;2023-05-29T02:41:18;94385.94;;;18.50;58.84
27958;BME280;15295;42.658;23.374;2023-05-29T02:43:52;94386.94;;;18.43;58.74
27958;BME280;15295;42.658;23.374;2023-05-29T02:46:18;94396.75;;;18.57;58.85
27958;BME280;15295;42.658;23.374;2023-05-29T02:48:43;94402.84;;;18.52;58.82
27958;BME280;15295;42.658;23.374;2023-05-29T02:51:09;94385.09;;;18.40;58.74
27958;BME280;15295;42.658;23.374;2023-05-29T02:54:10;94395.00;;;18.51;59.04
27958;BME280;15295;42.658;23.374;2023-05-29T02:56:49;94399.47;;;18.48;59.01
27958;BME280;15295;42.658;23.374;2023-05-29T02:59:15;94396.13;;;18.53;58.96
27958;BME280;15295;42.658;23.374;2023-05-29T03:01:41;94392.09;;;18.54;58.99
27958;BME280;15295;42.658;23.374;2023-05-29T03:04:14;94401.81;;;18.59;59.19
27958;BME280;15295;42.658;23.374;2023-05-29T03:06:40;94400.16;;;18.61;59.10
27958;BME280;15295;42.658;23.374;2023-05-29T03:09:06;94399.38;;;18.61;59.14
27958;BME280;15295;42.658;23.374;2023-05-29T03:11:32;94402.66;;;18.68;59.30
27958;BME280;15295;42.658;23.374;2023-05-29T03:14:04;94390.13;;;18.55;59.14
27958;BME280;15295;42.658;23.374;2023-05-29T03:17:00;94403.44;;;18.69;59.37
27958;BME280;15295;42.658;23.374;2023-05-29T03:19:32;94385.84;;;18.63;59.25
27958;BME280;15295;42.658;23.374;2023-05-29T03:21:58;94410.88;;;18.81;59.16
27958;BME280;15295;42.658;23.374;2023-05-29T03:24:24;94389.19;;;18.79;58.80
27958;BME280;15295;42.658;23.374;2023-05-29T03:26:50;94391.63;;;18.77;59.11
27958;BME280;15295;42.658;23.374;2023-05-29T03:29:22;94406.59;;;18.89;58.87
27958;BME280;15295;42.658;23.374;2023-05-29T03:31:47;94378.75;;;18.83;58.42
27958;BME280;15295;42.658;23.374;2023-05-29T03:34:25;94409.91;;;19.05;58.62
27958;BME280;15295;42.658;23.374;2023-05-29T03:36:51;94418.97;;;19.06;58.54
27958;BME280;15295;42.658;23.374;2023-05-29T03:39:53;94423.94;;;19.11;58.74
27958;BME280;15295;42.658;23.374;2023-05-29T03:42:26;94427.03;;;19.13;58.71
27958;BME280;15295;42.658;23.374;2023-05-29T03:45:01;94435.97;;;19.17;58.98
27958;BME280;15295;42.658;23.374;2023-05-29T03:47:29;94413.03;;;19.16;58.65
27958;BME280;15295;42.658;23.374;2023-05-29T03:49:59;94425.75;;;19.36;58.64
27958;BME280;15295;42.658;23.374;2023-05-29T03:52:25;94421.53;;;19.31;57.92
27958;BME280;15295;42.658;23.374;2023-05-29T03:55:02;94421.47;;;19.44;57.97
27958;BME280;15295;42.658;23.374;2023-05-29T03:57:28;94429.78;;;19.53;58.00
27958;BME280;15295;42.658;23.374;2023-05-29T03:59:56;94419.94;;;19.52;57.77
27958;BME280;15295;42.658;23.374;2023-05-29T04:05:09;94408.69;;;19.46;57.83
27958;BME280;15295;42.658;23.374;2023-05-29T04:07:37;94439.72;;;19.81;57.84
27958;BME280;15295;42.658;23.374;2023-05-29T04:10:04;94423.06;;;19.63;57.50
27958;BME280;15295;42.658;23.374;2023-05-29T04:12:30;94431.53;;;19.68;57.13
27958;BME280;15295;42.658;23.374;2023-05-29T04:15:03;94439.41;;;19.79;57.05
27958;BME280;15295;42.658;23.374;2023-05-29T04:17:28;94442.34;;;19.84;56.56
27958;BME280;15295;42.658;23.374;2023-05-29T04:19:55;94440.94;;;19.89;57.08
27958;BME280;15295;42.658;23.374;2023-05-29T04:22:21;94439.44;;;20.06;57.20
27958;BME280;15295;42.658;23.374;2023-05-29T04:24:55;94449.66;;;20.27;57.00
27958;BME280;15295;42.658;23.374;2023-05-29T04:27:22;94458.75;;;20.37;56.71
27958;BME280;15295;42.658;23.374;2023-05-29T04:29:48;94454.41;;;20.45;57.04
27958;BME280;15295;42.658;23.374;2023-05-29T04:32:14;94450.44;;;20.46;57.03
27958;BME280;15295;42.658;23.374;2023-05-29T04:34:41;94455.50;;;20.56;57.09
27958;BME280;15295;42.658;23.374;2023-05-29T04:37:09;94456.88;;;20.61;56.24
27958;BME280;15295;42.658;23.374;2023-05-29T04:39:36;94432.22;;;20.54;55.53
27958;BME280;15295;42.658;23.374;2023-05-29T04:45:30;94420.78;;;20.61;55.41
27958;BME280;15295;42.658;23.374;2023-05-29T04:47:56;94450.66;;;20.93;55.43
27958;BME280;15295;42.658;23.374;2023-05-29T04:50:22;94466.06;;;21.12;55.06
27958;BME280;15295;42.658;23.374;2023-05-29T04:52:48;94468.69;;;21.16;55.32
27958;BME280;15295;42.658;23.374;2023-05-29T04:55:14;94465.56;;;21.32;55.30
27958;BME280;15295;42.658;23.374;2023-05-29T04:57:40;94465.91;;;21.58;55.08
27958;BME280;15295;42.658;23.374;2023-05-29T05:00:06;94475.03;;;21.82;54.62
27958;BME280;15295;42.658;23.374;2023-05-29T05:02:33;94475.75;;;22.00;53.65
27958;BME280;15295;42.658;23.374;2023-05-29T05:07:34;94491.97;;;22.25;53.28
27958;BME280;15295;42.658;23.374;2023-05-29T05:10:00;94474.78;;;22.27;52.99
27958;BME280;15295;42.658;23.374;2023-05-29T05:12:26;94496.63;;;22.43;52.31
27958;BME280;15295;42.658;23.374;2023-05-29T05:14:51;94491.66;;;22.47;51.92
27958;BME280;15295;42.658;23.374;2023-05-29T05:17:16;94495.84;;;22.66;51.54
27958;BME280;15295;42.658;23.374;2023-05-29T05:19:42;94494.53;;;22.76;51.15
27958;BME280;15295;42.658;23.374;2023-05-29T05:22:07;94480.22;;;22.83;50.28
27958;BME280;15295;42.658;23.374;2023-05-29T05:24:33;94486.66;;;22.89;50.51
27958;BME280;15295;42.658;23.374;2023-05-29T05:26:59;94494.56;;;23.06;50.36
27958;BME280;15295;42.658;23.374;2023-05-29T05:29:25;94498.69;;;23.25;50.37
27958;BME280;15295;42.658;23.374;2023-05-29T05:31:50;94493.41;;;23.27;49.23
27958;BME280;15295;42.658;23.374;2023-05-29T05:34:16;94495.47;;;23.41;49.23
27958;BME280;15295;42.658;23.374;2023-05-29T05:36:41;94500.16;;;23.49;49.13
27958;BME280;15295;42.658;23.374;2023-05-29T05:39:07;94487.00;;;23.50;49.05
27958;BME280;15295;42.658;23.374;2023-05-29T05:41:32;94499.84;;;23.62;48.64
27958;BME280;15295;42.658;23.374;2023-05-29T05:43:58;94499.00;;;23.56;48.29
27958;BME280;15295;42.658;23.374;2023-05-29T05:46:45;94506.28;;;23.68;48.28
27958;BME280;15295;42.658;23.374;2023-05-29T05:49:11;94494.34;;;23.67;47.79
27958;BME280;15295;42.658;23.374;2023-05-29T05:51:36;94497.06;;;23.62;48.13
27958;BME280;15295;42.658;23.374;2023-05-29T05:54:01;94497.56;;;23.60;47.55
27958;BME280;15295;42.658;23.374;2023-05-29T05:56:27;94494.88;;;23.37;48.13
27958;BME280;15295;42.658;23.374;2023-05-29T05:58:52;94503.91;;;23.46;48.44
27958;BME280;15295;42.658;23.374;2023-05-29T06:01:18;94511.41;;;23.55;47.94
27958;BME280;15295;42.658;23.374;2023-05-29T06:03:44;94500.66;;;23.48;47.68
27958;BME280;15295;42.658;23.374;2023-05-29T06:06:10;94496.97;;;23.42;47.93
27958;BME280;15295;42.658;23.374;2023-05-29T06:08:36;94477.38;;;23.36;48.16
27958;BME280;15295;42.658;23.374;2023-05-29T06:11:02;94501.41;;;23.48;48.09
27958;BME280;15295;42.658;23.374;2023-05-29T06:13:28;94492.38;;;23.39;48.23
27958;BME280;15295;42.658;23.374;2023-05-29T06:15:55;94490.81;;;23.52;48.52
27958;BME280;15295;42.658;23.374;2023-05-29T06:18:21;94504.75;;;23.67;48.38
27958;BME280;15295;42.658;23.374;2023-05-29T06:20:47;94500.03;;;23.73;47.80
27958;BME280;15295;42.658;23.374;2023-05-29T06:23:12;94504.44;;;23.80;47.88
27958;BME280;15295;42.658;23.374;2023-05-29T06:25:39;94503.28;;;23.86;47.52
27958;BME280;15295;42.658;23.374;2023-05-29T06:28:04;94512.66;;;24.03;47.68
27958;BME280;15295;42.658;23.374;2023-05-29T06:30:31;94503.16;;;24.10;47.00
27958;BME280;15295;42.658;23.374;2023-05-29T06:32:56;94511.19;;;24.42;46.76
27958;BME280;15295;42.658;23.374;2023-05-29T06:35:22;94513.22;;;24.62;46.35
27958;BME280;15295;42.658;23.374;2023-05-29T06:37:48;94508.53;;;24.74;45.30
27958;BME280;15295;42.658;23.374;2023-05-29T06:40:14;94515.75;;;24.80;44.99
27958;BME280;15295;42.658;23.374;2023-05-29T06:42:40;94504.50;;;24.75;45.16
27958;BME280;15295;42.658;23.374;2023-05-29T06:45:06;94506.59;;;25.00;45.42
27958;BME280;15295;42.658;23.374;2023-05-29T06:47:53;94507.56;;;25.22;44.76
27958;BME280;15295;42.658;23.374;2023-05-29T06:50:20;94509.19;;;25.35;44.20
27958;BME280;15295;42.658;23.374;2023-05-29T06:52:45;94501.59;;;25.35;43.65
27958;BME280;15295;42.658;23.374;2023-05-29T06:55:11;94491.38;;;25.32;43.54
27958;BME280;15295;42.658;23.374;2023-05-29T06:57:49;94499.22;;;25.54;42.92
27958;BME280;15295;42.658;23.374;2023-05-29T07:00:15;94504.25;;;25.75;43.08
27958;BME280;15295;42.658;23.374;2023-05-29T07:02:40;94512.28;;;25.93;42.47
27958;BME280;15295;42.658;23.374;2023-05-29T07:05:05;94506.16;;;25.95;42.17
27958;BME280;15295;42.658;23.374;2023-05-29T07:07:32;94512.91;;;26.09;41.81
27958;BME280;15295;42.658;23.374;2023-05-29T07:09:57;94520.09;;;26.15;41.87
27958;BME280;15295;42.658;23.374;2023-05-29T07:12:23;94515.50;;;26.18;41.44
27958;BME280;15295;42.658;23.374;2023-05-29T07:14:48;94522.66;;;26.19;41.65
27958;BME280;15295;42.658;23.374;2023-05-29T07:17:18;94516.53;;;26.20;41.43
27958;BME280;15295;42.658;23.374;2023-05-29T07:19:43;94518.88;;;26.27;40.93
27958;BME280;15295;42.658;23.374;2023-05-29T07:22:09;94515.03;;;26.25;41.12
27958;BME280;15295;42.658;23.374;2023-05-29T07:24:35;94515.72;;;26.09;41.32
27958;BME280;15295;42.658;23.374;2023-05-29T07:27:01;94514.44;;;26.10;41.48
27958;BME280;15295;42.658;23.374;2023-05-29T07:29:27;94514.13;;;26.02;41.80
27958;BME280;15295;42.658;23.374;2023-05-29T07:31:52;94521.03;;;26.07;41.72
27958;BME280;15295;42.658;23.374;2023-05-29T07:34:18;94519.22;;;26.03;41.28
27958;BME280;15295;42.658;23.374;2023-05-29T07:37:05;94518.41;;;25.97;40.94
27958;BME280;15295;42.658;23.374;2023-05-29T07:39:33;94528.22;;;25.82;41.51
27958;BME280;15295;42.658;23.374;2023-05-29T07:42:02;94521.72;;;25.96;41.61
27958;BME280;15295;42.658;23.374;2023-05-29T07:44:27;94523.81;;;26.07;41.03
27958;BME280;15295;42.658;23.374;2023-05-29T07:46:53;94510.22;;;26.25;41.07
27958;BME280;15295;42.658;23.374;2023-05-29T07:49:19;94511.88;;;26.54;40.65
27958;BME280;15295;42.658;23.374;2023-05-29T07:51:45;94509.16;;;26.70;39.96
27958;BME280;15295;42.658;23.374;2023-05-29T07:54:10;94508.44;;;26.75;39.71
27958;BME280;15295;42.658;23.374;2023-05-29T07:56:39;94499.81;;;26.79;39.65
27958;BME280;15295;42.658;23.374;2023-05-29T07:59:05;94506.97;;;26.86;39.25
27958;BME280;15295;42.658;23.374;2023-05-29T08:01:32;94506.25;;;26.96;39.23
27958;BME280;15295;42.658;23.374;2023-05-29T08:03:57;94515.44;;;27.02;38.58
27958;BME280;15295;42.658;23.374;2023-05-29T08:06:22;94511.34;;;27.03;39.06
27958;BME280;15295;42.658;23.374;2023-05-29T08:08:48;94511.06;;;27.01;39.55
27958;BME280;15295;42.658;23.374;2023-05-29T08:11:14;94508.78;;;26.94;39.70
27958;BME280;15295;42.658;23.374;2023-05-29T08:13:39;94502.66;;;26.90;39.95
27958;BME280;15295;42.658;23.374;2023-05-29T08:16:05;94517.66;;;26.87;40.18
27958;BME280;15295;42.658;23.374;2023-05-29T08:18:35;94522.50;;;26.81;40.14
27958;BME280;15295;42.658;23.374;2023-05-29T08:21:01;94512.59;;;26.91;39.94
27958;BME280;15295;42.658;23.374;2023-05-29T08:23:27;94517.72;;;27.04;39.81
27958;BME280;15295;42.658;23.374;2023-05-29T08:25:52;94518.28;;;27.13;39.75
27958;BME280;15295;42.658;23.374;2023-05-29T08:28:28;94526.97;;;27.26;39.64
27958;BME280;15295;42.658;23.374;2023-05-29T08:30:54;94517.97;;;27.06;38.92
27958;BME280;15295;42.658;23.374;2023-05-29T08:33:19;94520.53;;;26.98;39.59
27958;BME280;15295;42.658;23.374;2023-05-29T08:35:44;94523.31;;;27.04;39.59
27958;BME280;15295;42.658;23.374;2023-05-29T08:38:17;94520.53;;;27.04;39.46
27958;BME280;15295;42.658;23.374;2023-05-29T08:40:42;94521.28;;;27.04;39.66
27958;BME280;15295;42.658;23.374;2023-05-29T08:43:23;94522.38;;;27.29;38.95
27958;BME280;15295;42.658;23.374;2023-05-29T08:45:57;94506.13;;;27.49;38.43
27958;BME280;15295;42.658;23.374;2023-05-29T08:48:24;94501.78;;;27.82;37.89
27958;BME280;15295;42.658;23.374;2023-05-29T08:50:54;94505.88;;;27.97;37.26
27958;BME280;15295;42.658;23.374;2023-05-29T08:53:22;94496.44;;;27.95;36.78
27958;BME280;15295;42.658;23.374;2023-05-29T08:55:47;94489.53;;;27.68;37.08
27958;BME280;15295;42.658;23.374;2023-05-29T08:58:23;94502.56;;;27.71;36.54
27958;BME280;15295;42.658;23.374;2023-05-29T09:00:49;94498.44;;;27.61;36.44
27958;BME280;15295;42.658;23.374;2023-05-29T09:03:15;94489.50;;;27.40;37.01
27958;BME280;15295;42.658;23.374;2023-05-29T09:05:41;94490.28;;;27.63;36.33
27958;BME280;15295;42.658;23.374;2023-05-29T09:08:08;94497.19;;;27.62;36.44
27958;BME280;15295;42.658;23.374;2023-05-29T09:10:35;94482.91;;;27.60;35.63
27958;BME280;15295;42.658;23.374;2023-05-29T09:13:00;94487.22;;;27.56;35.61
27958;BME280;15295;42.658;23.374;2023-05-29T09:15:26;94481.38;;;27.65;35.24
27958;BME280;15295;42.658;23.374;2023-05-29T09:17:54;94482.66;;;27.69;35.12
27958;BME280;15295;42.658;23.374;2023-05-29T09:20:21;94474.22;;;27.69;34.61
27958;BME280;15295;42.658;23.374;2023-05-29T09:22:53;94474.44;;;27.82;35.17
27958;BME280;15295;42.658;23.374;2023-05-29T09:25:21;94464.50;;;27.98;35.13
27958;BME280;15295;42.658;23.374;2023-05-29T09:27:50;94459.88;;;28.22;34.74
27958;BME280;15295;42.658;23.374;2023-05-29T09:30:42;94461.66;;;28.31;34.31
27958;BME280;15295;42.658;23.374;2023-05-29T09:33:09;94452.19;;;28.23;33.61
27958;BME280;15295;42.658;23.374;2023-05-29T09:35:37;94459.34;;;28.24;33.57
27958;BME280;15295;42.658;23.374;2023-05-29T09:38:03;94456.25;;;28.39;33.39
27958;BME280;15295;42.658;23.374;2023-05-29T09:40:30;94454.41;;;28.47;33.51
27958;BME280;15295;42.658;23.374;2023-05-29T09:43:01;94450.06;;;28.62;33.32
27958;BME280;15295;42.658;23.374;2023-05-29T09:45:28;94450.53;;;28.66;33.31
27958;BME280;15295;42.658;23.374;2023-05-29T09:47:53;94451.06;;;28.59;32.91
27958;BME280;15295;42.658;23.374;2023-05-29T09:50:36;94444.22;;;28.38;33.43
27958;BME280;15295;42.658;23.374;2023-05-29T09:53:01;94438.59;;;28.38;33.82
27958;BME280;15295;42.658;23.374;2023-05-29T09:55:27;94448.56;;;28.45;33.82
27958;BME280;15295;42.658;23.374;2023-05-29T09:57:54;94454.66;;;28.54;33.82
27958;BME280;15295;42.658;23.374;2023-05-29T10:00:21;94435.22;;;28.56;33.24
27958;BME280;15295;42.658;23.374;2023-05-29T10:02:50;94432.16;;;28.65;33.38
27958;BME280;15295;42.658;23.374;2023-05-29T10:05:16;94435.66;;;28.82;33.57
27958;BME280;15295;42.658;23.374;2023-05-29T10:07:44;94444.78;;;28.94;33.44
27958;BME280;15295;42.658;23.374;2023-05-29T10:10:14;94438.06;;;29.02;33.12
27958;BME280;15295;42.658;23.374;2023-05-29T10:12:44;94444.78;;;28.94;33.60
27958;BME280;15295;42.658;23.374;2023-05-29T10:15:14;94449.31;;;29.02;32.56
27958;BME280;15295;42.658;23.374;2023-05-29T10:20:52;94433.13;;;28.73;32.94
27958;BME280;15295;42.658;23.374;2023-05-29T10:23:22;94436.19;;;28.75;32.98
27958;BME280;15295;42.658;23.374;2023-05-29T10:25:53;94432.88;;;28.71;33.26
27958;BME280;15295;42.658;23.374;2023-05-29T10:28:20;94429.59;;;28.51;33.21
27958;BME280;15295;42.658;23.374;2023-05-29T10:30:53;94425.59;;;28.30;33.07
27958;BME280;15295;42.658;23.374;2023-05-29T10:36:18;94429.22;;;28.19;32.70
27958;BME280;15295;42.658;23.374;2023-05-29T10:38:46;94425.16;;;28.09;33.79
27958;BME280;15295;42.658;23.374;2023-05-29T10:41:32;94437.44;;;28.11;33.70
27958;BME280;15295;42.658;23.374;2023-05-29T10:44:02;94426.97;;;28.06;33.62
27958;BME280;15295;42.658;23.374;2023-05-29T10:49:22;94421.88;;;27.88;34.01
27958;BME280;15295;42.658;23.374;2023-05-29T10:51:48;94421.13;;;27.66;34.27
27958;BME280;15295;42.658;23.374;2023-05-29T10:54:13;94425.97;;;27.48;34.77
27958;BME280;15295;42.658;23.374;2023-05-29T10:56:39;94421.38;;;27.40;35.53
27958;BME280;15295;42.658;23.374;2023-05-29T10:59:07;94417.03;;;27.33;35.76
27958;BME280;15295;42.658;23.374;2023-05-29T11:01:33;94412.69;;;27.21;35.72
27958;BME280;15295;42.658;23.374;2023-05-29T11:06:43;94405.06;;;27.49;34.65
27958;BME280;15295;42.658;23.374;2023-05-29T11:09:36;94396.34;;;27.14;35.21
27958;BME280;15295;42.658;23.374;2023-05-29T11:15:03;94386.41;;;27.30;34.77
27958;BME280;15295;42.658;23.374;2023-05-29T11:17:42;94389.75;;;27.39;34.55
27958;BME280;15295;42.658;23.374;2023-05-29T11:20:42;94395.06;;;27.82;34.35
27958;BME280;15295;42.658;23.374;2023-05-29T11:23:15;94381.06;;;27.71;35.85
27958;BME280;15295;42.658;23.374;2023-05-29T11:25:44;94381.56;;;27.75;35.42
27958;BME280;15295;42.658;23.374;2023-05-29T11:28:11;94383.88;;;27.60;35.00
27958;BME280;15295;42.658;23.374;2023-05-29T11:31:01;94378.50;;;27.73;35.24
27958;BME280;15295;42.658;23.374;2023-05-29T11:33:33;94370.84;;;27.73;35.27
27958;BME280;15295;42.658;23.374;2023-05-29T11:36:01;94386.09;;;27.89;34.74
27958;BME280;15295;42.658;23.374;2023-05-29T11:38:27;94379.72;;;27.99;35.04
27958;BME280;15295;42.658;23.374;2023-05-29T11:40:57;94384.03;;;28.11;34.93
27958;BME280;15295;42.658;23.374;2023-05-29T11:43:24;94383.75;;;28.15;34.78
27958;BME280;15295;42.658;23.374;2023-05-29T11:45:50;94391.41;;;28.20;35.39
27958;BME280;15295;42.658;23.374;2023-05-29T11:48:15;94390.13;;;28.27;35.56
27958;BME280;15295;42.658;23.374;2023-05-29T11:50:43;94396.06;;;28.12;35.49
27958;BME280;15295;42.658;23.374;2023-05-29T11:53:11;94403.25;;;27.69;36.80
27958;BME280;15295;42.658;23.374;2023-05-29T11:55:37;94400.22;;;27.44;39.37
27958;BME280;15295;42.658;23.374;2023-05-29T11:58:04;94410.13;;;27.12;40.81
27958;BME280;15295;42.658;23.374;2023-05-29T12:00:32;94407.91;;;26.52;41.74
27958;BME280;15295;42.658;23.374;2023-05-29T12:02:59;94398.06;;;25.66;43.81
27958;BME280;15295;42.658;23.374;2023-05-29T12:05:29;94394.91;;;24.91;45.86
27958;BME280;15295;42.658;23.374;2023-05-29T12:07:56;94393.03;;;24.57;46.40
27958;BME280;15295;42.658;23.374;2023-05-29T12:10:22;94401.41;;;24.36;46.10
27958;BME280;15295;42.658;23.374;2023-05-29T12:12:58;94398.03;;;24.27;47.78
27958;BME280;15295;42.658;23.374;2023-05-29T12:15:25;94393.97;;;24.28;48.65
27958;BME280;15295;42.658;23.374;2023-05-29T12:17:51;94408.31;;;23.81;49.31
27958;BME280;15295;42.658;23.374;2023-05-29T12:20:21;94398.69;;;23.82;48.37
27958;BME280;15295;42.658;23.374;2023-05-29T12:22:47;94406.69;;;23.74;47.76
27958;BME280;15295;42.658;23.374;2023-05-29T12:25:16;94396.31;;;23.95;48.58
27958;BME280;15295;42.658;23.374;2023-05-29T12:27:44;94397.41;;;23.83;47.94
27958;BME280;15295;42.658;23.374;2023-05-29T12:30:21;94401.75;;;24.04;47.71
27958;BME280;15295;42.658;23.374;2023-05-29T12:32:50;94415.41;;;24.16;48.34
27958;BME280;15295;42.658;23.374;2023-05-29T12:35:20;94417.63;;;24.32;48.88
27958;BME280;15295;42.658;23.374;2023-05-29T12:40:25;94422.06;;;24.44;48.12
27958;BME280;15295;42.658;23.374;2023-05-29T12:43:00;94427.94;;;24.46;48.26
27958;BME280;15295;42.658;23.374;2023-05-29T12:45:31;94426.69;;;24.47;48.03
27958;BME280;15295;42.658;23.374;2023-05-29T12:47:59;94421.38;;;24.49;48.44
27958;BME280;15295;42.658;23.374;2023-05-29T12:50:44;94405.75;;;24.37;48.64
27958;BME280;15295;42.658;23.374;2023-05-29T12:53:11;94419.94;;;24.34;49.20
27958;BME280;15295;42.658;23.374;2023-05-29T12:55:38;94412.00;;;24.27;49.80
27958;BME280;15295;42.658;23.374;2023-05-29T12:58:08;94414.97;;;24.23;50.05
27958;BME280;15295;42.658;23.374;2023-05-29T13:00:35;94403.63;;;24.27;50.22
27958;BME280;15295;42.658;23.374;2023-05-29T13:03:01;94407.00;;;24.36;51.17
27958;BME280;15295;42.658;23.374;2023-05-29T13:05:27;94401.97;;;24.40;51.44
27958;BME280;15295;42.658;23.374;2023-05-29T13:07:53;94390.25;;;24.36;51.24
27958;BME280;15295;42.658;23.374;2023-05-29T13:10:19;94401.00;;;24.43;51.01
27958;BME280;15295;42.658;23.374;2023-05-29T13:12:47;94400.66;;;24.36;51.82
27958;BME280;15295;42.658;23.374;2023-05-29T13:15:14;94397.13;;;24.35;51.99
27958;BME280;15295;42.658;23.374;2023-05-29T13:17:40;94388.31;;;24.22;51.94
27958;BME280;15295;42.658;23.374;2023-05-29T13:20:15;94397.66;;;24.19;52.23
27958;BME280;15295;42.658;23.374;2023-05-29T13:22:43;94390.97;;;24.11;52.69
27958;BME280;15295;42.658;23.374;2023-05-29T13:25:11;94397.94;;;24.01;52.54
27958;BME280;15295;42.658;23.374;2023-05-29T13:27:39;94391.94;;;24.08;53.12